Time;durP1;ratioP1;P1;durP2;ratioP2;P2;SDS_P1;SDS_P2;PMS_P1;PMS_P2;Temp;Humidity;BMP_temperature;BMP_pressure;BME280_temperature;BME280_humidity;BME280_pressure;Samples;Min_cycle;Max_cycle;Signal;HPM_P1;HPM_P2
2021/08/14 00:01:57;;;;;;;18.25;4.57;;;;;;;-145.71;100.00;60690.53;5035193;28;20040;-81
2021/08/14 00:04:22;;;;;;;24.95;5.00;;;;;;;-145.71;100.00;60690.53;5017242;28;20535;-80
2021/08/14 00:06:48;;;;;;;19.25;5.15;;;;;;;-145.71;100.00;60690.53;5034208;28;20172;-81
2021/08/14 00:09:13;;;;;;;24.55;5.30;;;;;;;-145.71;100.00;60690.53;5014860;28;20025;-80
2021/08/14 00:11:38;;;;;;;14.05;4.07;;;;;;;-145.71;100.00;60690.53;5032078;28;20021;-80
2021/08/14 00:14:04;;;;;;;20.10;5.15;;;;;;;-145.71;100.00;60690.53;5031732;28;20033;-80
2021/08/14 00:16:30;;;;;;;23.13;4.78;;;;;;;-145.71;100.00;60690.53;5031271;28;20029;-80
2021/08/14 00:18:55;;;;;;;19.77;5.55;;;;;;;-145.71;100.00;60690.53;5033811;28;20156;-81
2021/08/14 00:21:21;;;;;;;20.77;5.32;;;;;;;-145.71;100.00;60690.53;5034034;28;20029;-81
2021/08/14 00:23:46;;;;;;;21.20;5.93;;;;;;;-145.71;100.00;60690.53;5033356;28;20056;-81
2021/08/14 00:26:12;;;;;;;15.00;5.32;;;;;;;-145.71;100.00;60690.53;5014582;28;20863;-80
2021/08/14 00:28:37;;;;;;;29.20;5.75;;;;;;;-145.71;100.00;60690.53;5031447;28;20036;-80
2021/08/14 00:31:03;;;;;;;20.23;4.38;;;;;;;-145.71;100.00;60690.53;5012934;28;20168;-80
2021/08/14 00:33:28;;;;;;;18.67;4.63;;;;;;;-145.71;100.00;60690.53;5031071;28;20432;-80
2021/08/14 00:35:53;;;;;;;24.17;5.32;;;;;;;-145.71;100.00;60690.53;5031179;28;20031;-80
2021/08/14 00:38:19;;;;;;;25.83;6.20;;;;;;;-145.71;100.00;60690.53;5032999;28;20053;-81
2021/08/14 00:40:44;;;;;;;20.95;4.43;;;;;;;-145.71;100.00;60690.53;5016704;28;20402;-81
2021/08/14 00:43:10;;;;;;;20.02;4.68;;;;;;;-145.71;100.00;60690.53;5033277;28;20500;-81
2021/08/14 00:45:41;;;;;;;21.88;4.63;;;;;;;-145.71;100.00;60690.53;5032195;28;20061;-81
2021/08/14 00:48:08;;;;;;;18.77;4.90;;;;;;;-145.71;100.00;60690.53;5031435;28;20056;-80
2021/08/14 00:50:33;;;;;;;19.50;4.88;;;;;;;-145.71;100.00;60690.53;5013120;28;20055;-80
2021/08/14 00:52:58;;;;;;;18.95;5.10;;;;;;;-145.71;100.00;60690.53;5030683;28;20029;-80
2021/08/14 00:55:24;;;;;;;20.67;4.43;;;;;;;-145.71;100.00;60690.53;5012580;28;20029;-80
2021/08/14 00:57:49;;;;;;;14.02;4.50;;;;;;;-145.71;100.00;60690.53;5015845;28;20473;-80
2021/08/14 01:00:15;;;;;;;20.73;5.03;;;;;;;-145.71;100.00;60690.53;5034153;28;20599;-81
2021/08/14 01:02:40;;;;;;;21.98;5.63;;;;;;;-145.71;100.00;60690.53;5033181;28;20044;-81
2021/08/14 01:05:06;;;;;;;24.10;5.85;;;;;;;-145.71;100.00;60690.53;5013851;28;20593;-81
2021/08/14 01:07:31;;;;;;;16.92;4.72;;;;;;;-145.71;100.00;60690.53;5031051;28;20026;-81
2021/08/14 01:09:57;;;;;;;25.35;5.28;;;;;;;-145.71;100.00;60690.53;5030596;28;20060;-80
2021/08/14 01:12:22;;;;;;;21.42;5.18;;;;;;;-145.71;100.00;60690.53;5030466;28;20033;-80
2021/08/14 01:14:49;;;;;;;15.75;5.25;;;;;;;-145.71;100.00;60690.53;5012544;28;20056;-81
2021/08/14 01:17:16;;;;;;;17.67;5.28;;;;;;;-145.71;100.00;60690.53;5034082;28;20080;-81
2021/08/14 01:19:44;;;;;;;21.88;5.43;;;;;;;-145.71;100.00;60690.53;5033989;28;20041;-81
2021/08/14 01:22:14;;;;;;;23.42;5.57;;;;;;;-145.71;100.00;60690.53;5033355;28;20108;-80
2021/08/14 01:24:41;;;;;;;24.90;5.43;;;;;;;-145.71;100.00;60690.53;5031958;28;20398;-80
2021/08/14 01:27:07;;;;;;;19.08;5.22;;;;;;;-145.71;100.00;60690.53;5031363;28;20029;-81
2021/08/14 01:29:34;;;;;;;23.42;5.70;;;;;;;-145.71;100.00;60690.53;5030795;28;20028;-80
2021/08/14 01:32:00;;;;;;;22.83;5.10;;;;;;;-145.71;100.00;60690.53;5030388;28;20029;-80
2021/08/14 01:34:25;;;;;;;22.13;5.80;;;;;;;-145.71;100.00;60690.53;5033578;28;20379;-80
2021/08/14 01:36:51;;;;;;;19.25;5.13;;;;;;;-145.71;100.00;60690.53;5013685;28;20092;-80
2021/08/14 01:39:16;;;;;;;26.33;5.78;;;;;;;-145.71;100.00;60690.53;5033118;28;20026;-81
2021/08/14 01:41:59;;;;;;;22.48;5.68;;;;;;;-145.71;100.00;60690.53;5031895;28;20073;-80
2021/08/14 01:44:25;;;;;;;21.45;5.55;;;;;;;-145.71;100.00;60690.53;5012978;28;20033;-80
2021/08/14 01:46:51;;;;;;;27.20;6.78;;;;;;;-145.71;100.00;60690.53;5030229;28;20037;-80
2021/08/14 01:49:16;;;;;;;19.63;5.00;;;;;;;-145.71;100.00;60690.53;5032053;28;20109;-80
2021/08/14 01:51:42;;;;;;;19.95;5.53;;;;;;;-145.71;100.00;60690.53;5035866;28;20032;-81
2021/08/14 01:54:07;;;;;;;25.08;5.90;;;;;;;-145.71;100.00;60690.53;5035754;28;20465;-80
2021/08/14 01:56:33;;;;;;;25.00;6.10;;;;;;;-145.71;100.00;60690.53;5019707;28;20061;-81
2021/08/14 01:59:00;;;;;;;21.65;5.47;;;;;;;-145.71;100.00;60690.53;5036388;28;20040;-81
2021/08/14 02:01:26;;;;;;;32.38;7.75;;;;;;;-145.71;100.00;60690.53;5017272;28;20029;-81
2021/08/14 02:03:51;;;;;;;23.92;6.45;;;;;;;-145.71;100.00;60690.53;5017034;28;20026;-80
2021/08/14 02:06:23;;;;;;;19.27;5.22;;;;;;;-145.71;100.00;60690.53;5017516;28;20460;-81
2021/08/14 02:08:48;;;;;;;22.48;5.47;;;;;;;-145.71;100.00;60690.53;5036455;28;20033;-80
2021/08/14 02:11:17;;;;;;;28.30;5.70;;;;;;;-145.71;100.00;60690.53;5035094;28;20021;-80
2021/08/14 02:13:44;;;;;;;25.67;6.00;;;;;;;-145.71;100.00;60690.53;5017440;28;20033;-81
2021/08/14 02:16:10;;;;;;;25.17;7.20;;;;;;;-145.71;100.00;60690.53;5035416;28;20029;-80
2021/08/14 02:18:35;;;;;;;23.80;5.30;;;;;;;-145.71;100.00;60690.53;5016371;28;20025;-80
2021/08/14 02:21:01;;;;;;;16.58;4.72;;;;;;;-145.71;100.00;60690.53;5017689;28;20052;-80
2021/08/14 02:23:26;;;;;;;25.17;6.97;;;;;;;-145.71;100.00;60690.53;5035942;28;20151;-81
2021/08/14 02:25:52;;;;;;;14.23;4.78;;;;;;;-145.71;100.00;60690.53;5035510;28;20029;-80
2021/08/14 02:28:17;;;;;;;21.85;5.57;;;;;;;-145.71;100.00;60690.53;5034151;28;20860;-80
2021/08/14 02:30:42;;;;;;;22.05;6.03;;;;;;;-145.71;100.00;60690.53;5035210;28;20035;-80
2021/08/14 02:33:07;;;;;;;27.70;6.78;;;;;;;-145.71;100.00;60690.53;5036332;28;20385;-81
2021/08/14 02:35:33;;;;;;;24.40;6.25;;;;;;;-145.71;100.00;60690.53;5035463;28;20212;-81
2021/08/14 02:37:58;;;;;;;20.85;5.28;;;;;;;-145.71;100.00;60690.53;5034950;28;20037;-80
2021/08/14 02:40:23;;;;;;;21.98;5.07;;;;;;;-145.71;100.00;60690.53;5037247;28;20036;-81
2021/08/14 02:42:49;;;;;;;22.77;5.60;;;;;;;-145.71;100.00;60690.53;5035302;28;20084;-81
2021/08/14 02:45:14;;;;;;;22.75;5.55;;;;;;;-145.71;100.00;60690.53;5034336;28;20033;-80
2021/08/14 02:47:40;;;;;;;37.22;6.88;;;;;;;-145.71;100.00;60690.53;5015177;28;20058;-80
2021/08/14 02:50:06;;;;;;;19.75;5.13;;;;;;;-145.71;100.00;60690.53;5015224;28;20202;-80
2021/08/14 02:52:31;;;;;;;25.35;7.55;;;;;;;-145.71;100.00;60690.53;5035261;28;20056;-81
2021/08/14 02:54:56;;;;;;;18.55;5.90;;;;;;;-145.71;100.00;60690.53;5035389;28;20033;-80
2021/08/14 02:57:22;;;;;;;21.25;5.88;;;;;;;-145.71;100.00;60690.53;5016156;28;20048;-80
2021/08/14 02:59:47;;;;;;;20.90;5.78;;;;;;;-145.71;100.00;60690.53;5036231;28;20063;-81
2021/08/14 03:02:13;;;;;;;25.83;6.07;;;;;;;-145.71;100.00;60690.53;5033926;28;20517;-81
2021/08/14 03:04:38;;;;;;;22.52;6.22;;;;;;;-145.71;100.00;60690.53;5033790;28;20108;-81
2021/08/14 03:07:04;;;;;;;21.02;5.70;;;;;;;-145.71;100.00;60690.53;5032975;28;20124;-80
2021/08/14 03:09:29;;;;;;;26.10;5.47;;;;;;;-145.71;100.00;60690.53;5032765;28;20037;-80
2021/08/14 03:11:54;;;;;;;23.70;5.85;;;;;;;-145.71;100.00;60690.53;5034539;28;20029;-80
2021/08/14 03:14:19;;;;;;;31.17;6.65;;;;;;;-145.71;100.00;60690.53;5034966;28;20033;-81
2021/08/14 03:16:45;;;;;;;24.17;6.60;;;;;;;-145.71;100.00;60690.53;5036512;28;20048;-80
2021/08/14 03:19:10;;;;;;;25.65;6.60;;;;;;;-145.71;100.00;60690.53;5016651;28;20033;-80
2021/08/14 03:21:35;;;;;;;26.83;6.00;;;;;;;-145.71;100.00;60690.53;5034257;28;20116;-80
2021/08/14 03:24:01;;;;;;;27.25;6.50;;;;;;;-145.71;100.00;60690.53;5033228;28;20061;-80
2021/08/14 03:26:26;;;;;;;19.25;6.05;;;;;;;-145.71;100.00;60690.53;5032597;28;20473;-80
2021/08/14 03:28:52;;;;;;;20.52;5.85;;;;;;;-145.71;100.00;60690.53;5033068;28;20036;-81
2021/08/14 03:31:21;;;;;;;22.15;6.18;;;;;;;-145.71;100.00;60690.53;5035702;28;20029;-80
2021/08/14 03:33:50;;;;;;;25.00;7.03;;;;;;;-145.71;100.00;60690.53;5036718;28;20452;-80
2021/08/14 03:36:16;;;;;;;26.17;5.93;;;;;;;-145.71;100.00;60690.53;5035455;28;20033;-80
2021/08/14 03:38:42;;;;;;;21.75;5.88;;;;;;;-145.71;100.00;60690.53;5034009;28;20029;-81
2021/08/14 03:41:08;;;;;;;27.00;6.90;;;;;;;-145.71;100.00;60690.53;5033074;28;20029;-81
2021/08/14 03:43:35;;;;;;;22.10;6.22;;;;;;;-145.71;100.00;60690.53;5014286;28;20032;-80
2021/08/14 03:46:00;;;;;;;24.23;5.80;;;;;;;-145.71;100.00;60690.53;5031977;28;20486;-80
2021/08/14 03:48:26;;;;;;;25.80;7.00;;;;;;;-145.71;100.00;60690.53;5031530;28;20036;-80
2021/08/14 03:50:51;;;;;;;22.35;6.10;;;;;;;-145.71;100.00;60690.53;5033647;28;20037;-81
2021/08/14 03:53:16;;;;;;;21.73;6.35;;;;;;;-145.71;100.00;60690.53;5036050;28;20039;-80
2021/08/14 03:55:42;;;;;;;26.38;6.93;;;;;;;-145.71;100.00;60690.53;5034191;28;20036;-81
2021/08/14 03:58:08;;;;;;;19.77;6.15;;;;;;;-145.71;100.00;60690.53;5014656;28;20041;-80
2021/08/14 04:00:34;;;;;;;24.15;6.40;;;;;;;-145.71;100.00;60690.53;5032299;28;20060;-81
2021/08/14 04:03:00;;;;;;;27.50;6.40;;;;;;;-145.71;100.00;60690.53;5032056;28;20389;-81
2021/08/14 04:05:25;;;;;;;24.92;7.30;;;;;;;-145.71;100.00;60690.53;5031725;28;20806;-80
2021/08/14 04:07:51;;;;;;;42.55;7.30;;;;;;;-145.71;100.00;60690.53;5031135;28;20029;-80
2021/08/14 04:10:16;;;;;;;23.27;6.95;;;;;;;-145.71;100.00;60690.53;5031925;28;20034;-80
2021/08/14 04:12:42;;;;;;;26.48;7.80;;;;;;;-145.71;100.00;60690.53;5036364;28;20035;-81
2021/08/14 04:15:08;;;;;;;24.80;7.93;;;;;;;-145.71;100.00;60690.53;5033431;28;20094;-80
2021/08/14 04:17:34;;;;;;;31.35;7.45;;;;;;;-145.71;100.00;60690.53;5014737;28;20034;-80
2021/08/14 04:20:00;;;;;;;26.92;7.03;;;;;;;-145.71;100.00;60690.53;5031736;28;20468;-81
2021/08/14 04:22:26;;;;;;;26.30;7.22;;;;;;;-145.71;100.00;60690.53;5031807;28;20436;-80
2021/08/14 04:24:52;;;;;;;27.45;7.50;;;;;;;-145.71;100.00;60690.53;5031241;28;20053;-80
2021/08/14 04:27:18;;;;;;;29.15;6.85;;;;;;;-145.71;100.00;60690.53;5030894;28;20032;-80
2021/08/14 04:29:43;;;;;;;26.80;7.55;;;;;;;-145.71;100.00;60690.53;5030886;28;20029;-80
2021/08/14 04:32:08;;;;;;;28.17;7.30;;;;;;;-145.71;100.00;60690.53;5015682;28;20326;-81
2021/08/14 04:34:34;;;;;;;32.33;8.98;;;;;;;-145.71;100.00;60690.53;5034743;28;20039;-81
2021/08/14 04:36:59;;;;;;;28.63;8.35;;;;;;;-145.71;100.00;60690.53;5015123;28;20392;-80
2021/08/14 04:39:24;;;;;;;29.45;9.13;;;;;;;-145.71;100.00;60690.53;5032722;28;20065;-80
2021/08/14 04:41:50;;;;;;;37.22;8.73;;;;;;;-145.71;100.00;60690.53;5032186;28;20087;-80
2021/08/14 04:44:15;;;;;;;36.00;9.27;;;;;;;-145.71;100.00;60690.53;5031172;28;20258;-80
2021/08/14 04:46:40;;;;;;;34.67;9.23;;;;;;;-145.71;100.00;60690.53;5012825;28;20124;-80
2021/08/14 04:49:06;;;;;;;41.47;9.57;;;;;;;-145.71;100.00;60690.53;5014686;28;20036;-81
2021/08/14 04:51:31;;;;;;;34.28;8.88;;;;;;;-145.71;100.00;60690.53;5016011;28;20025;-80
2021/08/14 04:53:57;;;;;;;24.73;8.13;;;;;;;-145.71;100.00;60690.53;5033928;28;20043;-80
2021/08/14 04:56:23;;;;;;;30.52;9.02;;;;;;;-145.71;100.00;60690.53;5033487;28;20036;-81
2021/08/14 04:58:48;;;;;;;34.28;9.18;;;;;;;-145.71;100.00;60690.53;5032512;28;20021;-80
2021/08/14 05:01:14;;;;;;;38.85;9.77;;;;;;;-145.71;100.00;60690.53;5031266;28;20075;-81
2021/08/14 05:03:39;;;;;;;29.83;7.95;;;;;;;-145.71;100.00;60690.53;5012799;28;20418;-81
2021/08/14 05:06:06;;;;;;;23.30;7.78;;;;;;;-145.71;100.00;60690.53;5031776;28;20022;-81
2021/08/14 05:08:32;;;;;;;34.28;9.20;;;;;;;-145.71;100.00;60690.53;5034577;28;20428;-80
2021/08/14 05:10:57;;;;;;;37.63;9.40;;;;;;;-145.71;100.00;60690.53;5015476;28;20099;-80
2021/08/14 05:13:22;;;;;;;26.38;8.95;;;;;;;-145.71;100.00;60690.53;5032199;28;20039;-81
2021/08/14 05:15:48;;;;;;;30.25;9.38;;;;;;;-145.71;100.00;60690.53;5016019;28;20075;-81
2021/08/14 05:18:16;;;;;;;34.35;8.10;;;;;;;-145.71;100.00;60690.53;5014109;28;20465;-81
2021/08/14 05:20:41;;;;;;;42.25;9.40;;;;;;;-145.71;100.00;60690.53;5031674;28;20025;-81
2021/08/14 05:23:06;;;;;;;26.73;8.00;;;;;;;-145.71;100.00;60690.53;5030646;28;20031;-80
2021/08/14 05:25:32;;;;;;;33.72;9.13;;;;;;;-145.71;100.00;60690.53;5030411;28;20150;-81
2021/08/14 05:27:57;;;;;;;30.65;8.68;;;;;;;-145.71;100.00;60690.53;5034430;28;20029;-81
2021/08/14 05:30:23;;;;;;;35.42;8.63;;;;;;;-145.71;100.00;60690.53;5032990;28;20117;-81
2021/08/14 05:32:48;;;;;;;23.40;8.02;;;;;;;-145.71;100.00;60690.53;5014436;28;20083;-80
2021/08/14 05:35:13;;;;;;;41.63;9.38;;;;;;;-145.71;100.00;60690.53;5031390;28;20119;-80
2021/08/14 05:37:39;;;;;;;28.45;9.45;;;;;;;-145.71;100.00;60690.53;5015211;28;20119;-81
2021/08/14 05:40:05;;;;;;;29.95;9.20;;;;;;;-145.71;100.00;60690.53;5014478;28;20036;-81
2021/08/14 05:42:30;;;;;;;38.35;8.68;;;;;;;-145.71;100.00;60690.53;5031087;28;20100;-81
2021/08/14 05:44:56;;;;;;;40.58;7.75;;;;;;;-145.71;100.00;60690.53;5015789;28;20025;-81
2021/08/14 05:47:21;;;;;;;28.70;8.10;;;;;;;-145.71;100.00;60690.53;5014753;28;20108;-80
2021/08/14 05:49:46;;;;;;;34.30;9.30;;;;;;;-145.71;100.00;60690.53;5031513;28;20113;-80
2021/08/14 05:52:12;;;;;;;31.17;8.40;;;;;;;-145.71;100.00;60690.53;5031201;28;20113;-80
2021/08/14 05:54:37;;;;;;;23.83;7.90;;;;;;;-145.71;100.00;60690.53;5030575;28;20022;-80
2021/08/14 05:57:02;;;;;;;42.72;9.70;;;;;;;-145.71;100.00;60690.53;5031673;28;20025;-81
2021/08/14 05:59:28;;;;;;;34.13;8.98;;;;;;;-145.71;100.00;60690.53;5032705;28;20036;-81
2021/08/14 06:01:53;;;;;;;27.80;8.98;;;;;;;-145.71;100.00;60690.53;5033248;28;20029;-81
2021/08/14 06:04:18;;;;;;;24.67;8.75;;;;;;;-145.71;100.00;60690.53;5033048;28;20025;-81
2021/08/14 06:06:44;;;;;;;26.27;8.15;;;;;;;-145.71;100.00;60690.53;5031845;28;20029;-81
2021/08/14 06:09:11;;;;;;;26.92;8.07;;;;;;;-145.71;100.00;60690.53;5030754;28;20037;-81
2021/08/14 06:11:36;;;;;;;33.28;8.63;;;;;;;-145.71;100.00;60690.53;5012505;28;20409;-81
2021/08/14 06:14:02;;;;;;;23.05;7.55;;;;;;;-145.71;100.00;60690.53;5029632;28;20030;-80
2021/08/14 06:16:27;;;;;;;31.88;7.78;;;;;;;-145.71;100.00;60690.53;5013851;28;20061;-81
2021/08/14 06:18:53;;;;;;;32.65;8.63;;;;;;;-145.71;100.00;60690.53;5032911;28;20026;-81
2021/08/14 06:21:18;;;;;;;28.10;8.35;;;;;;;-145.71;100.00;60690.53;5015581;28;20026;-81
2021/08/14 06:23:43;;;;;;;29.00;9.05;;;;;;;-145.71;100.00;60690.53;5013136;28;20069;-81
2021/08/14 06:26:09;;;;;;;28.55;7.95;;;;;;;-145.71;100.00;60690.53;5030733;28;20026;-81
2021/08/14 06:28:34;;;;;;;41.08;8.65;;;;;;;-145.71;100.00;60690.53;5029640;28;20485;-81
2021/08/14 06:30:59;;;;;;;36.72;10.00;;;;;;;-145.71;100.00;60690.53;5011882;28;20033;-81
2021/08/14 06:33:25;;;;;;;28.75;8.82;;;;;;;-145.71;100.00;60690.53;5029314;28;20120;-80
2021/08/14 06:35:50;;;;;;;27.70;9.13;;;;;;;-145.71;100.00;60690.53;5015556;28;20064;-81
2021/08/14 06:38:15;;;;;;;35.60;9.60;;;;;;;-145.71;100.00;60690.53;5019263;28;20083;-81
2021/08/14 06:40:40;;;;;;;32.30;9.48;;;;;;;-145.71;100.00;60690.53;5035996;28;20045;-80
2021/08/14 06:43:06;;;;;;;27.25;7.75;;;;;;;-145.71;100.00;60690.53;5035122;28;20021;-80
2021/08/14 06:45:32;;;;;;;30.63;9.27;;;;;;;-145.71;100.00;60690.53;5016157;28;20033;-80
2021/08/14 06:47:57;;;;;;;33.88;8.93;;;;;;;-145.71;100.00;60690.53;5014595;28;20119;-80
2021/08/14 06:50:22;;;;;;;27.10;9.65;;;;;;;-145.71;100.00;60690.53;5032499;28;20044;-80
2021/08/14 06:52:48;;;;;;;29.42;7.88;;;;;;;-145.71;100.00;60690.53;5014655;28;20124;-81
2021/08/14 06:55:13;;;;;;;30.80;9.30;;;;;;;-145.71;100.00;60690.53;5018297;28;20036;-81
2021/08/14 06:57:38;;;;;;;37.58;8.68;;;;;;;-145.71;100.00;60690.53;5017318;28;20029;-81
2021/08/14 07:00:05;;;;;;;32.78;8.68;;;;;;;-145.71;100.00;60690.53;5034445;28;20029;-81
2021/08/14 07:02:31;;;;;;;29.05;8.52;;;;;;;-145.71;100.00;60690.53;5033376;28;20112;-81
2021/08/14 07:04:56;;;;;;;28.65;9.73;;;;;;;-145.71;100.00;60690.53;5032813;28;20113;-81
2021/08/14 07:07:21;;;;;;;29.65;9.30;;;;;;;-145.71;100.00;60690.53;5033017;28;20030;-81
2021/08/14 07:09:47;;;;;;;29.42;8.82;;;;;;;-145.71;100.00;60690.53;5032631;28;20033;-80
2021/08/14 07:12:14;;;;;;;32.20;9.52;;;;;;;-145.71;100.00;60690.53;5034937;28;20030;-81
2021/08/14 07:14:39;;;;;;;37.20;10.80;;;;;;;-145.71;100.00;60690.53;5018858;28;20029;-81
2021/08/14 07:17:05;;;;;;;29.45;8.43;;;;;;;-145.71;100.00;60690.53;5017523;28;20036;-81
2021/08/14 07:19:31;;;;;;;30.75;9.68;;;;;;;-145.71;100.00;60690.53;5016318;28;20619;-81
2021/08/14 07:21:56;;;;;;;30.45;8.15;;;;;;;-145.71;100.00;60690.53;5033640;28;20393;-81
2021/08/14 07:24:21;;;;;;;34.67;8.80;;;;;;;-145.71;100.00;60690.53;5032653;28;20068;-81
2021/08/14 07:26:47;;;;;;;30.63;8.43;;;;;;;-145.71;100.00;60690.53;5032457;28;20120;-81
2021/08/14 07:29:12;;;;;;;28.13;9.52;;;;;;;-145.71;100.00;60690.53;5033730;28;20033;-81
2021/08/14 07:31:37;;;;;;;33.90;9.50;;;;;;;-145.71;100.00;60690.53;5035480;28;20470;-81
2021/08/14 07:34:03;;;;;;;35.13;9.73;;;;;;;-145.71;100.00;60690.53;5018073;28;20029;-81
2021/08/14 07:36:28;;;;;;;32.42;8.85;;;;;;;-145.71;100.00;60690.53;5035443;28;20497;-81
2021/08/14 07:38:53;;;;;;;32.63;8.57;;;;;;;-145.71;100.00;60690.53;5015613;28;20474;-81
2021/08/14 07:41:19;;;;;;;29.65;8.50;;;;;;;-145.71;100.00;60690.53;5014940;28;20031;-81
2021/08/14 07:43:44;;;;;;;30.15;8.93;;;;;;;-145.71;100.00;60690.53;5032692;28;20065;-81
2021/08/14 07:46:10;;;;;;;25.80;8.65;;;;;;;-145.71;100.00;60690.53;5032293;28;20036;-81
2021/08/14 07:48:35;;;;;;;30.92;8.75;;;;;;;-145.71;100.00;60690.53;5031655;28;20033;-81
2021/08/14 07:51:01;;;;;;;32.10;9.38;;;;;;;-145.71;100.00;60690.53;5036334;28;20056;-81
2021/08/14 07:53:27;;;;;;;32.22;8.43;;;;;;;-145.71;100.00;60690.53;5036210;28;20026;-81
2021/08/14 07:55:52;;;;;;;32.17;8.95;;;;;;;-145.71;100.00;60690.53;5034283;28;20040;-81
2021/08/14 07:58:18;;;;;;;37.03;8.77;;;;;;;-145.71;100.00;60690.53;5033444;28;20440;-81
2021/08/14 08:00:43;;;;;;;27.17;7.47;;;;;;;-145.71;100.00;60690.53;5014316;28;20445;-81
2021/08/14 08:03:10;;;;;;;31.55;9.02;;;;;;;-145.71;100.00;60690.53;5014145;28;20540;-81
2021/08/14 08:05:36;;;;;;;24.42;7.25;;;;;;;-145.71;100.00;60690.53;5031540;28;20072;-81
2021/08/14 08:08:02;;;;;;;27.08;8.52;;;;;;;-145.71;100.00;60690.53;5031100;28;20065;-81
2021/08/14 08:10:28;;;;;;;32.15;7.55;;;;;;;-145.71;100.00;60690.53;5015090;28;20057;-81
2021/08/14 08:12:54;;;;;;;27.50;7.80;;;;;;;-145.71;100.00;60690.53;5017792;28;20052;-81
2021/08/14 08:15:19;;;;;;;26.48;7.45;;;;;;;-145.71;100.00;60690.53;5034052;28;20036;-81
2021/08/14 08:17:45;;;;;;;25.50;8.80;;;;;;;-145.71;100.00;60690.53;5014473;28;20021;-81
2021/08/14 08:20:13;;;;;;;23.15;6.90;;;;;;;-145.71;100.00;60690.53;5013942;28;20025;-81
2021/08/14 08:22:39;;;;;;;28.60;7.45;;;;;;;-145.71;100.00;60690.53;5031493;28;20091;-81
2021/08/14 08:25:05;;;;;;;32.13;7.30;;;;;;;-145.71;100.00;60690.53;5009512;28;20061;-81
2021/08/14 08:27:30;;;;;;;25.05;7.18;;;;;;;-145.71;100.00;60690.53;5014916;28;20033;-81
2021/08/14 08:29:55;;;;;;;24.45;6.93;;;;;;;-145.71;100.00;60690.53;5016757;28;20478;-81
2021/08/14 08:32:21;;;;;;;27.77;8.10;;;;;;;-145.71;100.00;60690.53;5013653;28;20034;-81
2021/08/14 08:34:46;;;;;;;24.90;6.45;;;;;;;-145.71;100.00;60690.53;5013919;28;20025;-81
2021/08/14 08:37:11;;;;;;;23.15;6.60;;;;;;;-145.71;100.00;60690.53;5013088;28;20029;-81
2021/08/14 08:39:37;;;;;;;22.67;7.28;;;;;;;-145.71;100.00;60690.53;5012159;28;20125;-81
2021/08/14 08:42:06;;;;;;;28.75;7.25;;;;;;;-145.71;100.00;60690.53;5011393;28;20033;-81
2021/08/14 08:44:33;;;;;;;25.90;6.57;;;;;;;-145.71;100.00;60690.53;5013535;28;20493;-81
2021/08/14 08:46:59;;;;;;;25.50;6.85;;;;;;;-145.71;100.00;60690.53;5013732;28;20476;-81
2021/08/14 08:49:26;;;;;;;22.40;6.35;;;;;;;-145.71;100.00;60690.53;5013247;28;20040;-81
2021/08/14 08:51:51;;;;;;;19.95;5.80;;;;;;;-145.71;100.00;60690.53;5013816;28;20537;-81
2021/08/14 08:54:17;;;;;;;23.77;6.07;;;;;;;-145.71;100.00;60690.53;5012268;28;20034;-81
2021/08/14 08:56:43;;;;;;;21.55;6.70;;;;;;;-145.71;100.00;60690.53;5012566;28;20563;-81
2021/08/14 08:59:11;;;;;;;23.42;6.53;;;;;;;-145.71;100.00;60690.53;5011495;28;20033;-81
2021/08/14 09:01:40;;;;;;;19.02;6.10;;;;;;;-145.71;100.00;60690.53;5010592;28;20039;-81
2021/08/14 09:04:41;;;;;;;23.90;7.47;;;;;;;-145.71;100.00;60690.53;5015168;28;20034;-81
2021/08/14 09:07:07;;;;;;;22.63;7.38;;;;;;;-145.71;100.00;60690.53;4971677;28;20090;-81
2021/08/14 09:09:32;;;;;;;27.55;7.63;;;;;;;-145.71;100.00;60690.53;5001644;28;20033;-81
2021/08/14 09:12:00;;;;;;;26.08;6.25;;;;;;;-145.71;100.00;60690.53;5013233;28;20379;-81
2021/08/14 09:14:28;;;;;;;25.25;7.43;;;;;;;-145.71;100.00;60690.53;5011824;28;20030;-81
2021/08/14 09:17:12;;;;;;;28.65;7.32;;;;;;;-145.71;100.00;60690.53;5009429;28;20033;-81
2021/08/14 09:19:37;;;;;;;24.95;6.80;;;;;;;-145.71;100.00;60690.53;5010979;28;20018;-81
2021/08/14 09:22:14;;;;;;;20.05;6.05;;;;;;;-145.71;100.00;60690.53;5011838;28;20166;-81
2021/08/14 09:24:41;;;;;;;21.95;5.72;;;;;;;-145.71;100.00;60690.53;5026013;28;20412;-81
2021/08/14 09:27:07;;;;;;;22.75;6.50;;;;;;;-145.71;100.00;60690.53;5032458;28;20120;-81
2021/08/14 09:29:37;;;;;;;24.48;6.40;;;;;;;-145.71;100.00;60690.53;5033337;28;20365;-81
2021/08/14 09:32:05;;;;;;;29.70;7.47;;;;;;;-145.71;100.00;60690.53;5015236;28;20053;-81
2021/08/14 09:34:31;;;;;;;25.88;6.70;;;;;;;-145.71;100.00;60690.53;5032822;28;20029;-81
2021/08/14 09:37:02;;;;;;;25.48;6.47;;;;;;;-145.71;100.00;60690.53;5030994;28;20032;-81
2021/08/14 09:39:29;;;;;;;22.35;5.85;;;;;;;-145.71;100.00;60690.53;5031349;28;20271;-81
2021/08/14 09:42:04;;;;;;;21.48;6.20;;;;;;;-145.71;100.00;60690.53;5034404;28;20059;-81
2021/08/14 09:44:30;;;;;;;26.35;7.07;;;;;;;-145.71;100.00;60690.53;5032639;28;20083;-80
2021/08/14 09:46:55;;;;;;;19.60;6.45;;;;;;;-145.71;100.00;60690.53;5031994;28;20424;-81
2021/08/14 09:49:20;;;;;;;26.52;6.40;;;;;;;-145.71;100.00;60690.53;5032771;28;20063;-81
2021/08/14 09:51:46;;;;;;;21.42;6.55;;;;;;;-145.71;100.00;60690.53;5033364;28;20128;-81
2021/08/14 09:54:11;;;;;;;21.67;6.22;;;;;;;-145.71;100.00;60690.53;5013886;28;20030;-81
2021/08/14 09:56:37;;;;;;;32.47;9.07;;;;;;;-145.71;100.00;60690.53;5031248;28;20366;-81
2021/08/14 09:59:04;;;;;;;23.00;7.10;;;;;;;-145.71;100.00;60690.53;5033101;28;20036;-81
2021/08/14 10:01:32;;;;;;;25.40;6.53;;;;;;;-145.71;100.00;60690.53;5033557;28;20029;-81
2021/08/14 10:03:58;;;;;;;20.88;7.38;;;;;;;-145.71;100.00;60690.53;5032307;28;20432;-80
2021/08/14 10:06:25;;;;;;;33.50;7.65;;;;;;;-145.71;100.00;60690.53;5031581;28;20033;-79
2021/08/14 10:08:50;;;;;;;23.88;6.80;;;;;;;-145.71;100.00;60690.53;5033234;28;20119;-80
2021/08/14 10:11:16;;;;;;;33.53;8.20;;;;;;;-145.71;100.00;60690.53;5015716;28;20163;-80
2021/08/14 10:13:42;;;;;;;21.08;6.90;;;;;;;-145.71;100.00;60690.53;5036107;28;20037;-79
2021/08/14 10:16:11;;;;;;;23.85;6.85;;;;;;;-145.71;100.00;60690.53;5035560;28;20028;-80
2021/08/14 10:18:41;;;;;;;28.27;7.13;;;;;;;-145.71;100.00;60690.53;5036556;28;20370;-80
2021/08/14 10:21:08;;;;;;;27.05;7.10;;;;;;;-145.71;100.00;60690.53;5017589;28;20277;-80
2021/08/14 10:23:34;;;;;;;22.55;6.65;;;;;;;-145.71;100.00;60690.53;5035125;28;20444;-79
2021/08/14 10:26:10;;;;;;;21.42;6.45;;;;;;;-145.71;100.00;60690.53;5035346;28;20479;-80
2021/08/14 10:28:52;;;;;;;27.98;7.82;;;;;;;-145.71;100.00;60690.53;5036508;28;20022;-80
2021/08/14 10:31:30;;;;;;;23.63;8.32;;;;;;;-145.71;100.00;60690.53;5017655;28;20057;-80
2021/08/14 10:34:00;;;;;;;23.08;5.75;;;;;;;-145.71;100.00;60690.53;5017036;28;20056;-79
2021/08/14 10:36:27;;;;;;;20.35;6.03;;;;;;;-145.71;100.00;60690.53;5035659;28;20439;-79
2021/08/14 10:38:53;;;;;;;23.02;6.65;;;;;;;-145.71;100.00;60690.53;5017904;28;20033;-79
2021/08/14 10:41:20;;;;;;;21.02;6.25;;;;;;;-145.71;100.00;60690.53;5034962;28;20040;-79
2021/08/14 10:43:51;;;;;;;18.02;6.25;;;;;;;-145.71;100.00;60690.53;5033610;28;20106;-79
2021/08/14 10:46:42;;;;;;;17.05;6.28;;;;;;;-145.71;100.00;60690.53;5015352;28;20059;-79
2021/08/14 10:49:19;;;;;;;25.30;5.40;;;;;;;-145.71;100.00;60690.53;5034666;28;20040;-79
2021/08/14 10:51:51;;;;;;;23.27;5.88;;;;;;;-145.71;100.00;60690.53;5035263;28;20036;-79
2021/08/14 10:54:28;;;;;;;23.50;6.32;;;;;;;-145.71;100.00;60690.53;5035118;28;20496;-80
2021/08/14 10:56:55;;;;;;;24.50;6.47;;;;;;;-145.71;100.00;60690.53;5018488;28;20029;-81
2021/08/14 10:59:39;;;;;;;25.08;6.53;;;;;;;-145.71;100.00;60690.53;5035339;28;20134;-81